< < Back
Terminal Aerodrome Forecast


Current Version              Previous Versions:   1  2  3  4  5  6  7  8  9  

Terminal Aerodrome Forecast

332
FTUS42 KFFC 261744
TAFAHN
TAF
KAHN 261744Z 2618/2718 22006KT P6SM SCT050
     FM262000 22006KT P6SM VCSH SCT045
     FM270100 21003KT P6SM FEW050 SCT100
     FM271500 23005KT P6SM SCT040=

Latest METAR

358
SAUS70 KWBC 262054
MTRAHN
METAR KAHN 262051Z VRB06KT 10SM CLR 37/17 A3000 RMK AO2 SLP148 T03720172
56013


USA.gov is the U.S. government's official web portal to all federal, state and local government web resources and services.